createdAt,value
2023-03-20T00:00:42.021Z,100177.45
2023-03-20T00:02:46.446Z,100179.87
2023-03-20T00:04:51.275Z,100175.88
2023-03-20T00:06:55.834Z,100178.48
2023-03-20T00:09:07.961Z,100177.98
2023-03-20T00:11:13.900Z,100176.34
2023-03-20T00:13:18.330Z,100174.46
2023-03-20T00:15:22.706Z,100173.43
2023-03-20T00:17:27.062Z,100175.05
2023-03-20T00:19:31.465Z,100179.74
2023-03-20T00:21:35.991Z,100173.63
2023-03-20T00:23:40.375Z,100178.59
2023-03-20T00:25:44.785Z,100178.42
2023-03-20T00:27:49.245Z,100175.59
2023-03-20T00:29:53.666Z,100171.22
2023-03-20T00:31:58.180Z,100174.66
2023-03-20T00:34:02.596Z,100173.3
2023-03-20T00:36:07.018Z,100172.82
2023-03-20T00:38:11.486Z,100172.33
2023-03-20T00:40:16.586Z,100175.66
2023-03-20T00:42:20.983Z,100174.56
2023-03-20T00:44:25.562Z,100177.34
2023-03-20T00:46:30.414Z,100171.19
2023-03-20T00:48:34.915Z,100170.31
2023-03-20T00:50:39.291Z,100170.84
2023-03-20T00:52:43.772Z,100165.69
2023-03-20T00:54:48.193Z,100166.18
2023-03-20T00:56:52.595Z,100167.13
2023-03-20T00:58:56.961Z,100163.28
2023-03-20T01:01:01.598Z,100162.31
2023-03-20T01:03:06.266Z,100162.88
2023-03-20T01:05:10.650Z,100160.13
2023-03-20T01:07:15.099Z,100164.37
2023-03-20T01:09:19.520Z,100165.28
2023-03-20T01:11:23.878Z,100164.84
2023-03-20T01:13:28.371Z,100165.59
2023-03-20T01:15:32.936Z,100161.97
2023-03-20T01:17:37.982Z,100160.65
2023-03-20T01:19:42.417Z,100163.34
2023-03-20T01:21:46.828Z,100161.75
2023-03-20T01:23:51.275Z,100163.85
2023-03-20T01:25:55.767Z,100168.87
2023-03-20T01:28:00.177Z,100160.19
2023-03-20T01:30:04.518Z,100161.91
2023-03-20T01:32:09.216Z,100166.9
2023-03-20T01:34:13.910Z,100169.05
2023-03-20T01:36:18.388Z,100167.69
2023-03-20T01:38:22.789Z,100168.58
2023-03-20T01:40:27.198Z,100168.75
2023-03-20T01:42:31.606Z,100173.03
2023-03-20T01:44:36.007Z,100167.42
2023-03-20T01:46:40.564Z,100171.78
2023-03-20T01:48:45.026Z,100171.88
2023-03-20T01:50:49.419Z,100172.41
2023-03-20T01:52:53.818Z,100171.39
2023-03-20T01:54:58.258Z,100180.65
2023-03-20T01:57:02.680Z,100175.59
2023-03-20T01:59:07.136Z,100174.39
2023-03-20T02:01:11.730Z,100179.41
2023-03-20T02:03:16.172Z,100182.05
2023-03-20T02:05:20.612Z,100177.68
2023-03-20T02:07:25.008Z,100181.14
2023-03-20T02:09:29.546Z,100175.73
2023-03-20T02:11:33.969Z,100175.8
2023-03-20T02:13:38.380Z,100181.38
2023-03-20T02:15:42.752Z,100175.83
2023-03-20T02:17:47.156Z,100176.33
2023-03-20T02:19:51.617Z,100170.02
2023-03-20T02:21:56.015Z,100168.44
2023-03-20T02:24:00.446Z,100172.64
2023-03-20T02:26:04.830Z,100172.64
2023-03-20T02:28:09.223Z,100175.27
2023-03-20T02:30:13.631Z,100171.39
2023-03-20T02:32:17.989Z,100177.46
2023-03-20T02:34:22.440Z,100178.68
2023-03-20T02:36:26.836Z,100180.75
2023-03-20T02:38:31.240Z,100174.41
2023-03-20T02:40:35.634Z,100176.12
2023-03-20T02:42:40.068Z,100175.12
2023-03-20T02:44:44.489Z,100174.33
2023-03-20T02:46:48.906Z,100171.67
2023-03-20T02:48:53.284Z,100170.67
2023-03-20T02:50:57.708Z,100173.92
2023-03-20T02:53:02.113Z,100168.89
2023-03-20T02:55:06.576Z,100171.95
2023-03-20T02:57:10.990Z,100171.88
2023-03-20T02:59:15.415Z,100170.95
2023-03-20T03:01:19.849Z,100171.67
2023-03-20T03:03:24.382Z,100165.02
2023-03-20T03:05:28.750Z,100164.69
2023-03-20T03:07:33.150Z,100168.16
2023-03-20T03:09:37.539Z,100164.56
2023-03-20T03:11:41.896Z,100161.82
2023-03-20T03:13:46.325Z,100168.56
2023-03-20T03:15:50.818Z,100165.31
2023-03-20T03:17:55.301Z,100162.08
2023-03-20T03:19:59.715Z,100160.14
2023-03-20T03:22:04.108Z,100159.66
2023-03-20T03:24:08.511Z,100160.77
2023-03-20T03:26:12.984Z,100161.73
2023-03-20T03:28:17.388Z,100162.18
2023-03-20T03:30:21.762Z,100160.42
2023-03-20T03:32:26.244Z,100161.86
2023-03-20T03:34:30.660Z,100162.13
2023-03-20T03:36:35.035Z,100158.77
2023-03-20T03:38:39.517Z,100158.53
2023-03-20T03:40:43.905Z,100158.27
2023-03-20T03:42:48.299Z,100156.05
2023-03-20T03:44:52.738Z,100157.64
2023-03-20T03:46:57.291Z,100152.63
2023-03-20T03:49:01.884Z,100153.98
2023-03-20T03:51:06.270Z,100149.14
2023-03-20T03:53:10.680Z,100156.98
2023-03-20T03:55:15.088Z,100152.79
2023-03-20T03:57:19.457Z,100150.47
2023-03-20T03:59:23.863Z,100156.08
2023-03-20T04:01:28.511Z,100152.84
2023-03-20T04:03:33.008Z,100156.9
2023-03-20T04:05:38.358Z,100157.21
2023-03-20T04:07:42.776Z,100161.48
2023-03-20T04:09:47.211Z,100160.5
2023-03-20T04:11:51.717Z,100161.86
2023-03-20T04:13:56.137Z,100164.75
2023-03-20T04:16:00.683Z,100163.67
2023-03-20T04:19:49.961Z,100164.53
2023-03-20T04:21:54.334Z,100164.7
2023-03-20T04:23:58.752Z,100165.03
2023-03-20T04:26:03.266Z,100163.2
2023-03-20T04:28:07.625Z,100165.5
2023-03-20T04:30:12.058Z,100163.27
2023-03-20T04:32:16.429Z,100165.08
2023-03-20T04:34:20.842Z,100165.3
2023-03-20T04:36:25.249Z,100164.86
2023-03-20T04:38:29.777Z,100168.98
2023-03-20T04:40:34.287Z,100164.05
2023-03-20T04:42:38.688Z,100167.93
2023-03-20T04:44:43.076Z,100167.87
2023-03-20T04:46:47.524Z,100167.13
2023-03-20T04:48:51.929Z,100166.95
2023-03-20T04:50:56.276Z,100171.79
2023-03-20T04:53:00.705Z,100171.63
2023-03-20T04:55:05.120Z,100172.21
2023-03-20T04:57:09.507Z,100174.19
2023-03-20T04:59:13.892Z,100173.21
2023-03-20T05:01:18.435Z,100177.44
2023-03-20T05:03:25.122Z,100177.95
2023-03-20T05:05:29.514Z,100179.28
2023-03-20T05:07:34.084Z,100177.28
2023-03-20T05:09:38.472Z,100178.27
2023-03-20T05:11:42.890Z,100178.1
2023-03-20T05:13:47.301Z,100177.42
2023-03-20T05:15:51.726Z,100174.33
2023-03-20T05:17:56.154Z,100179.44
2023-03-20T05:20:00.548Z,100177.02
2023-03-20T05:22:04.967Z,100177.98
2023-03-20T05:24:09.370Z,100180.3
2023-03-20T05:26:13.852Z,100180.84
2023-03-20T05:28:18.249Z,100184.18
2023-03-20T05:30:22.726Z,100182.52
2023-03-20T05:32:27.148Z,100192.15
2023-03-20T05:34:31.635Z,100188.47
2023-03-20T05:36:36.132Z,100191.82
2023-03-20T05:38:40.599Z,100194.91
2023-03-20T05:40:45.022Z,100199.64
2023-03-20T05:42:49.529Z,100197.53
2023-03-20T05:44:54.052Z,100198.76
2023-03-20T05:46:58.492Z,100199.2
2023-03-20T05:49:02.986Z,100194.44
2023-03-20T05:51:07.409Z,100197.39
2023-03-20T05:53:11.770Z,100204.11
2023-03-20T05:55:16.181Z,100200.92
2023-03-20T05:57:20.560Z,100197.97
2023-03-20T05:59:24.968Z,100200.48
2023-03-20T06:01:29.385Z,100198
2023-03-20T06:03:33.965Z,100200.48
2023-03-20T06:05:39.074Z,100205.42
2023-03-20T06:07:43.608Z,100206.91
2023-03-20T06:09:47.965Z,100205.64
2023-03-20T06:11:52.371Z,100200.81
2023-03-20T06:13:56.897Z,100197.31
2023-03-20T06:16:01.337Z,100199.88
2023-03-20T06:18:05.834Z,100205.18
2023-03-20T06:20:10.456Z,100205.64
2023-03-20T06:22:14.877Z,100210.41
2023-03-20T06:24:19.449Z,100205.94
2023-03-20T06:26:23.953Z,100208.64
2023-03-20T06:28:28.427Z,100213.2
2023-03-20T06:30:32.798Z,100213.02
2023-03-20T06:32:37.386Z,100216.38
2023-03-20T06:34:41.883Z,100212.71
2023-03-20T06:36:46.703Z,100212.17
2023-03-20T06:38:51.098Z,100214.99
2023-03-20T06:40:55.736Z,100222.22
2023-03-20T06:43:00.133Z,100220.21
2023-03-20T06:45:04.527Z,100215.11
2023-03-20T06:47:08.902Z,100219.39
2023-03-20T06:49:13.290Z,100220.45
2023-03-20T06:51:17.890Z,100219.8
2023-03-20T06:53:22.260Z,100222.86
2023-03-20T06:55:26.634Z,100223.2
2023-03-20T06:57:31.034Z,100225.66
2023-03-20T06:59:36.129Z,100223.64
2023-03-20T07:01:40.670Z,100221.88
2023-03-20T07:03:45.154Z,100221.51
2023-03-20T07:05:49.517Z,100221.2
2023-03-20T07:07:53.973Z,100218.91
2023-03-20T07:09:58.365Z,100219.73
2023-03-20T07:12:02.703Z,100220.05
2023-03-20T07:14:07.110Z,100221.27
2023-03-20T07:16:11.574Z,100224.85
2023-03-20T07:18:16.109Z,100224.55
2023-03-20T07:20:20.576Z,100228.98
2023-03-20T07:22:24.966Z,100232.34
2023-03-20T07:24:29.522Z,100234.53
2023-03-20T07:26:33.879Z,100232.82
2023-03-20T07:28:38.297Z,100235.45
2023-03-20T07:30:42.680Z,100233.23
2023-03-20T07:32:47.208Z,100229.96
2023-03-20T07:34:51.719Z,100232.38
2023-03-20T07:36:56.107Z,100236.52
2023-03-20T07:39:00.506Z,100237.73
2023-03-20T07:41:04.903Z,100235.9
2023-03-20T07:43:09.320Z,100234.2
2023-03-20T07:45:13.718Z,100238.28
2023-03-20T07:47:18.131Z,100236.38
2023-03-20T07:49:22.612Z,100239.67
2023-03-20T07:51:27.011Z,100240.86
2023-03-20T07:53:31.537Z,100246.29
2023-03-20T07:55:36.488Z,100244.75
2023-03-20T07:57:41.548Z,100244.64
2023-03-20T07:59:46.013Z,100249.23
2023-03-20T08:01:50.528Z,100246.69
2023-03-20T08:03:55.260Z,100250.06
2023-03-20T08:06:00.461Z,100253.23
2023-03-20T08:08:05.447Z,100256.59
2023-03-20T08:10:10.111Z,100255.83
2023-03-20T08:12:14.557Z,100253.97
2023-03-20T08:14:19.052Z,100251.39
2023-03-20T08:16:23.584Z,100252.59
2023-03-20T08:18:28.201Z,100253.77
2023-03-20T08:20:32.635Z,100258.41
2023-03-20T08:22:37.002Z,100263.98
2023-03-20T08:24:41.470Z,100259.12
2023-03-20T08:26:45.892Z,100261.73
2023-03-20T08:28:52.582Z,100261.13
2023-03-20T08:30:57.234Z,100262.64
2023-03-20T08:33:01.851Z,100261.09
2023-03-20T08:35:06.348Z,100263.68
2023-03-20T08:37:10.742Z,100266.25
2023-03-20T08:39:15.107Z,100264.84
2023-03-20T08:41:20.102Z,100263.78
2023-03-20T08:43:24.595Z,100267.33
2023-03-20T08:45:29.040Z,100264.38
2023-03-20T08:47:33.431Z,100272.75
2023-03-20T08:49:37.831Z,100270.66
2023-03-20T08:51:42.355Z,100275.11
2023-03-20T08:53:46.934Z,100275.58
2023-03-20T08:55:51.408Z,100272.52
2023-03-20T08:57:55.829Z,100274.98
2023-03-20T09:00:00.341Z,100281.27
2023-03-20T09:02:05.053Z,100273.95
2023-03-20T09:04:09.627Z,100281.2
2023-03-20T09:06:14.091Z,100282.42
2023-03-20T09:08:18.516Z,100280.81
2023-03-20T09:10:23.156Z,100284.44
2023-03-20T09:12:27.727Z,100278.67
2023-03-20T09:14:32.145Z,100282.48
2023-03-20T09:16:36.758Z,100281.2
2023-03-20T09:18:41.303Z,100281.13
2023-03-20T09:20:45.801Z,100280.67
2023-03-20T09:22:50.266Z,100282.98
2023-03-20T09:24:54.661Z,100279.27
2023-03-20T09:26:59.817Z,100280.22
2023-03-20T09:29:07.128Z,100280.7
2023-03-20T09:31:11.764Z,100282.91
2023-03-20T09:33:16.380Z,100276.77
2023-03-20T09:35:20.895Z,100275.92
2023-03-20T09:37:25.312Z,100272.98
2023-03-20T09:39:29.714Z,100266.56
2023-03-20T09:41:34.897Z,100268.41
2023-03-20T09:43:59.227Z,100269.96
2023-03-20T09:46:03.707Z,100268.22
2023-03-20T09:48:08.269Z,100265.42
2023-03-20T09:50:12.666Z,100261.77
2023-03-20T09:52:17.117Z,100263.35
2023-03-20T09:54:21.666Z,100265.72
2023-03-20T09:56:26.056Z,100264.72
2023-03-20T09:58:30.435Z,100260.22
2023-03-20T10:00:35.754Z,100264.98
2023-03-20T10:02:40.747Z,100269.34
2023-03-20T10:04:45.321Z,100266.53
2023-03-20T10:06:49.846Z,100269.02
2023-03-20T10:08:54.268Z,100266.44
2023-03-20T10:10:58.869Z,100268.41
2023-03-20T10:13:03.388Z,100267.86
2023-03-20T10:15:07.925Z,100264.78
2023-03-20T10:17:12.362Z,100265.25
2023-03-20T10:19:16.752Z,100260.97
2023-03-20T10:21:21.146Z,100262.55
2023-03-20T10:23:25.662Z,100258.38
2023-03-20T10:25:30.191Z,100257.95
2023-03-20T10:27:34.710Z,100252.02
2023-03-20T10:29:39.341Z,100243.63
2023-03-20T10:31:43.895Z,100244.94
2023-03-20T10:33:48.319Z,100242.16
2023-03-20T10:35:52.806Z,100245.39
2023-03-20T10:37:57.270Z,100242.83
2023-03-20T10:40:01.665Z,100242.69
2023-03-20T10:42:06.090Z,100234.8
2023-03-20T10:44:10.758Z,100243.5
2023-03-20T10:46:15.208Z,100237.95
2023-03-20T10:48:19.631Z,100241.01
2023-03-20T10:50:24.054Z,100235.41
2023-03-20T10:52:28.661Z,100238.24
2023-03-20T10:54:33.588Z,100234.83
2023-03-20T10:56:37.982Z,100236.64
2023-03-20T10:58:42.387Z,100224.73
2023-03-20T11:00:46.865Z,100228.31
2023-03-20T11:02:51.469Z,100223.89
2023-03-20T11:04:55.932Z,100227.96
2023-03-20T11:07:00.350Z,100225.73
2023-03-20T11:09:04.794Z,100222.17
2023-03-20T11:11:09.250Z,100221.48
2023-03-20T11:13:13.689Z,100218.02
2023-03-20T11:15:18.110Z,100223.77
2023-03-20T11:17:22.494Z,100222.23
2023-03-20T11:19:26.851Z,100224.3
2023-03-20T11:21:31.278Z,100222.05
2023-03-20T11:23:35.733Z,100236.58
2023-03-20T11:25:40.161Z,100225.09
2023-03-20T11:27:44.574Z,100227.16
2023-03-20T11:29:49.055Z,100226.44
2023-03-20T11:31:53.665Z,100224.16
2023-03-20T11:33:58.106Z,100224.85
2023-03-20T11:36:02.622Z,100229.64
2023-03-20T11:38:07.091Z,100224.88
2023-03-20T11:40:11.507Z,100227.31
2023-03-20T11:42:16.046Z,100227.56
2023-03-20T11:44:21.495Z,100226.2
2023-03-20T11:46:26.181Z,100222.47
2023-03-20T11:48:30.614Z,100219.77
2023-03-20T11:50:35.816Z,100218.69
2023-03-20T11:52:40.883Z,100214.48
2023-03-20T11:54:45.257Z,100214.91
2023-03-20T11:56:49.659Z,100218.11
2023-03-20T11:58:54.074Z,100214.16
2023-03-20T12:00:58.430Z,100215.84
2023-03-20T12:03:02.858Z,100205.74
2023-03-20T12:05:07.366Z,100203.84
2023-03-20T12:07:12.275Z,100206.73
2023-03-20T12:09:16.707Z,100202.53
2023-03-20T12:11:21.117Z,100200.44
2023-03-20T12:13:25.565Z,100191.06
2023-03-20T12:15:29.991Z,100190.34
2023-03-20T12:17:34.409Z,100187.77
2023-03-20T12:19:38.891Z,100181.69
2023-03-20T12:21:43.372Z,100188.73
2023-03-20T12:23:50.087Z,100178.29
2023-03-20T12:25:54.509Z,100180.84
2023-03-20T12:27:58.954Z,100177.41
2023-03-20T12:30:03.446Z,100174.47
2023-03-20T12:32:07.821Z,100175
2023-03-20T12:34:12.246Z,100165.05
2023-03-20T12:36:16.692Z,100172.48
2023-03-20T12:38:21.111Z,100165.64
2023-03-20T12:40:28.803Z,100161.26
2023-03-20T12:42:33.265Z,100158.91
2023-03-20T12:44:37.678Z,100152.2
2023-03-20T12:46:42.480Z,100148.67
2023-03-20T12:48:46.978Z,100152.82
2023-03-20T12:50:51.486Z,100140.41
2023-03-20T12:52:55.897Z,100137.77
2023-03-20T12:55:00.321Z,100138.88
2023-03-20T12:57:04.851Z,100139.56
2023-03-20T12:59:09.328Z,100144.8
2023-03-20T13:01:13.782Z,100148.72
2023-03-20T13:03:18.386Z,100146.02
2023-03-20T13:05:22.899Z,100144.04
2023-03-20T13:07:27.441Z,100142.84
2023-03-20T13:09:31.891Z,100145.94
2023-03-20T13:11:36.337Z,100150.63
2023-03-20T13:13:40.723Z,100154.08
2023-03-20T13:15:45.238Z,100163.19
2023-03-20T13:17:49.738Z,100163.64
2023-03-20T13:19:54.149Z,100163.16
2023-03-20T13:21:58.571Z,100174.28
2023-03-20T13:24:02.981Z,100173.27
2023-03-20T13:26:07.388Z,100181.27
2023-03-20T13:28:11.813Z,100181
2023-03-20T13:30:16.305Z,100167.07
2023-03-20T13:32:20.852Z,100154.6
2023-03-20T13:34:25.318Z,100149.45
2023-03-20T13:36:29.784Z,100144.83
2023-03-20T13:38:34.309Z,100142.67
2023-03-20T13:40:39.534Z,100141.06
2023-03-20T13:42:44.022Z,100143.9
2023-03-20T13:44:48.483Z,100138.92
2023-03-20T13:46:53.083Z,100139.34
2023-03-20T13:48:57.690Z,100139.45
2023-03-20T13:51:03.289Z,100138.27
2023-03-20T13:53:07.803Z,100141.55
2023-03-20T13:55:12.231Z,100142
2023-03-20T13:57:16.836Z,100140.72
2023-03-20T13:59:21.470Z,100139.09
2023-03-20T14:01:26.097Z,100137.78
2023-03-20T14:03:30.676Z,100141.41
2023-03-20T14:05:35.131Z,100144.03
2023-03-20T14:07:39.544Z,100138.36
2023-03-20T14:09:43.896Z,100139.79
2023-03-20T14:11:48.298Z,100143.19
2023-03-20T14:13:52.911Z,100145.34
2023-03-20T14:15:57.428Z,100123.09
2023-03-20T14:18:01.922Z,100143.86
2023-03-20T14:20:06.419Z,100143.77
2023-03-20T14:22:11.101Z,100142.06
2023-03-20T14:24:15.654Z,100140.09
2023-03-20T14:26:20.117Z,100140.5
2023-03-20T14:28:24.517Z,100142.13
2023-03-20T14:30:28.941Z,100145.77
2023-03-20T14:32:33.552Z,100152
2023-03-20T14:34:38.076Z,100149.72
2023-03-20T14:36:42.563Z,100150.06
2023-03-20T14:38:54.380Z,100152.73
2023-03-20T14:40:59.324Z,100156.03
2023-03-20T14:43:03.743Z,100163.17
2023-03-20T14:45:08.159Z,100158.7
2023-03-20T14:47:12.646Z,100166.09
2023-03-20T14:49:18.020Z,100166.77
2023-03-20T14:51:22.448Z,100164.76
2023-03-20T14:53:26.953Z,100160.3
2023-03-20T14:55:31.504Z,100156.02
2023-03-20T14:57:56.774Z,100163.68
2023-03-20T15:00:01.495Z,100165.19
2023-03-20T15:02:05.979Z,100165.95
2023-03-20T15:04:10.481Z,100158.73
2023-03-20T15:06:14.900Z,100158.09
2023-03-20T15:08:19.335Z,100153.98
2023-03-20T15:10:23.758Z,100148.49
2023-03-20T15:12:28.171Z,100147.09
2023-03-20T15:14:32.607Z,100144.42
2023-03-20T15:16:37.076Z,100145.11
2023-03-20T15:18:41.458Z,100140.08
2023-03-20T15:20:45.903Z,100133.31
2023-03-20T15:22:50.315Z,100141.92
2023-03-20T15:24:54.750Z,100145.41
2023-03-20T15:26:59.337Z,100148.45
2023-03-20T15:29:03.733Z,100148.43
2023-03-20T15:31:08.257Z,100157.22
2023-03-20T15:33:12.833Z,100158.02
2023-03-20T15:35:17.382Z,100155.83
2023-03-20T15:37:21.759Z,100162.14
2023-03-20T15:39:26.203Z,100159.99
2023-03-20T15:41:30.602Z,100167.28
2023-03-20T15:43:35.017Z,100172.75
2023-03-20T15:45:39.998Z,100173.77
2023-03-20T15:47:44.437Z,100173.98
2023-03-20T15:49:48.923Z,100173.97
2023-03-20T15:51:53.338Z,100179.52
2023-03-20T15:53:57.792Z,100179.84
2023-03-20T15:56:19.346Z,100187.67
2023-03-20T15:58:24.008Z,100185.42
2023-03-20T16:00:28.439Z,100190.59
2023-03-20T16:02:32.826Z,100192.39
2023-03-20T16:04:37.421Z,100196.69
2023-03-20T16:06:41.917Z,100191.67
2023-03-20T16:08:46.308Z,100197.04
2023-03-20T16:10:50.753Z,100197.35
2023-03-20T16:12:55.218Z,100199.59
2023-03-20T16:14:59.658Z,100197.87
2023-03-20T16:17:04.160Z,100201.59
2023-03-20T16:19:08.622Z,100200.08
2023-03-20T16:21:13.055Z,100197.34
2023-03-20T16:23:17.463Z,100200.06
2023-03-20T16:25:21.886Z,100198.36
2023-03-20T16:27:26.346Z,100204.42
2023-03-20T16:29:30.735Z,100198.63
2023-03-20T16:31:35.543Z,100210.09
2023-03-20T16:33:40.723Z,100206.88
2023-03-20T16:35:45.364Z,100212.22
2023-03-20T16:37:49.952Z,100214.78
2023-03-20T16:39:54.628Z,100212.19
2023-03-20T16:41:59.164Z,100215.84
2023-03-20T16:44:03.632Z,100218.71
2023-03-20T16:46:08.230Z,100222.27
2023-03-20T16:48:12.710Z,100217.66
2023-03-20T16:50:17.333Z,100212.95
2023-03-20T16:52:21.898Z,100222.63
2023-03-20T16:54:26.387Z,100220.81
2023-03-20T16:56:30.834Z,100225.8
2023-03-20T16:58:35.307Z,100225.66
2023-03-20T17:00:40.541Z,100227.13
2023-03-20T17:02:45.120Z,100227.88
2023-03-20T17:04:49.681Z,100234.02
2023-03-20T17:06:54.225Z,100233.27
2023-03-20T17:08:58.777Z,100234.38
2023-03-20T17:11:03.245Z,100227.92
2023-03-20T17:13:07.768Z,100226.97
2023-03-20T17:15:12.303Z,100229.66
2023-03-20T17:17:20.320Z,100231.91
2023-03-20T17:19:25.153Z,100233.27
2023-03-20T17:21:29.780Z,100230.47
2023-03-20T17:23:34.429Z,100227.22
2023-03-20T17:25:39.233Z,100228.89
2023-03-20T17:27:44.003Z,100229.11
2023-03-20T17:29:48.591Z,100233.95
2023-03-20T17:31:53.182Z,100228.98
2023-03-20T17:33:57.827Z,100229.19
2023-03-20T17:36:02.373Z,100232.11
2023-03-20T17:38:06.810Z,100233.58
2023-03-20T17:40:11.220Z,100236.58
2023-03-20T17:42:15.641Z,100228.73
2023-03-20T17:44:20.183Z,100237.64
2023-03-20T17:46:24.670Z,100240.45
2023-03-20T17:48:29.340Z,100240.33
2023-03-20T17:50:33.749Z,100245.96
2023-03-20T17:52:38.522Z,100246.61
2023-03-20T17:54:42.953Z,100246
2023-03-20T17:56:47.398Z,100246.13
2023-03-20T17:58:51.923Z,100249.5
2023-03-20T18:00:56.770Z,100250.23
2023-03-20T18:03:01.573Z,100252.48
2023-03-20T18:05:06.232Z,100255.2
2023-03-20T18:07:10.925Z,100247.18
2023-03-20T18:09:15.469Z,100248.1
2023-03-20T18:11:19.823Z,100244.08
2023-03-20T18:13:24.257Z,100251.52
2023-03-20T18:15:28.916Z,100249.06
2023-03-20T18:17:33.484Z,100252.19
2023-03-20T18:19:37.912Z,100250.41
2023-03-20T18:21:42.343Z,100253.11
2023-03-20T18:23:46.869Z,100253.44
2023-03-20T18:25:51.372Z,100247.8
2023-03-20T18:27:55.935Z,100244.73
2023-03-20T18:30:00.488Z,100244.28
2023-03-20T18:32:05.040Z,100243.08
2023-03-20T18:34:09.385Z,100245.73
2023-03-20T18:36:13.922Z,100247.96
2023-03-20T18:38:18.552Z,100237.28
2023-03-20T18:40:23.066Z,100252.44
2023-03-20T18:42:27.576Z,100254.56
2023-03-20T18:44:32.038Z,100252.7
2023-03-20T18:46:36.843Z,100252.2
2023-03-20T18:48:41.411Z,100247.97
2023-03-20T18:50:45.837Z,100244.83
2023-03-20T18:52:50.263Z,100249.62
2023-03-20T18:54:54.719Z,100252.78
2023-03-20T18:56:59.142Z,100251.23
2023-03-20T18:59:03.584Z,100254.41
2023-03-20T19:01:07.996Z,100254.94
2023-03-20T19:03:12.556Z,100247.93
2023-03-20T19:05:16.998Z,100244.17
2023-03-20T19:07:21.452Z,100244.08
2023-03-20T19:09:25.918Z,100237
2023-03-20T19:11:30.338Z,100235.38
2023-03-20T19:13:35.123Z,100238.11
2023-03-20T19:15:39.544Z,100238.16
2023-03-20T19:17:43.932Z,100239.83
2023-03-20T19:19:48.358Z,100246.31
2023-03-20T19:21:52.781Z,100247.09
2023-03-20T19:23:57.223Z,100250.58
2023-03-20T19:26:01.629Z,100246.84
2023-03-20T19:28:06.042Z,100249.95
2023-03-20T19:30:11.338Z,100247.73
2023-03-20T19:32:15.778Z,100248.17
2023-03-20T19:35:38.786Z,100255.77
2023-03-20T19:38:05.396Z,100254.68
2023-03-20T19:40:09.887Z,100253.57
2023-03-20T19:43:01.319Z,100260.84
2023-03-20T19:45:07.396Z,100263.47
2023-03-20T19:47:11.994Z,100258.13
2023-03-20T19:49:19.515Z,100254.16
2023-03-20T19:51:24.500Z,100263.37
2023-03-20T19:53:29.011Z,100261.85
2023-03-20T19:55:33.484Z,100259.37
2023-03-20T19:57:37.932Z,100265.7
2023-03-20T19:59:45.045Z,100266.78
2023-03-20T20:01:49.881Z,100271.84
2023-03-20T20:03:54.885Z,100270.38
2023-03-20T20:05:59.368Z,100272.73
2023-03-20T20:08:42.342Z,100270.67
2023-03-20T20:10:52.785Z,100268.89
2023-03-20T20:12:57.446Z,100269.66
2023-03-20T20:15:01.980Z,100271.05
2023-03-20T20:17:06.490Z,100270.71
2023-03-20T20:19:10.970Z,100270.09
2023-03-20T20:24:29.313Z,100272.59
2023-03-20T20:26:53.169Z,100269.39
2023-03-20T20:29:10.423Z,100274.31
2023-03-20T20:31:14.999Z,100271.83
2023-03-20T20:33:20.079Z,100274.32
2023-03-20T20:36:35.131Z,100272.58
2023-03-20T20:39:44.356Z,100275.44
2023-03-20T20:41:48.885Z,100268.59
2023-03-20T20:44:23.292Z,100267.02
2023-03-20T20:46:27.990Z,100263.36
2023-03-20T20:48:32.524Z,100261.94
2023-03-20T20:50:37.055Z,100258.57
2023-03-20T20:52:42.729Z,100259.89
2023-03-20T20:54:48.272Z,100254.11
2023-03-20T20:56:52.769Z,100257.66
2023-03-20T20:58:57.279Z,100254.05
2023-03-20T21:01:01.812Z,100255.56
2023-03-20T21:03:06.430Z,100256.48
2023-03-20T21:05:10.941Z,100258.55
2023-03-20T21:07:15.333Z,100251.55
2023-03-20T21:09:19.741Z,100250.61
2023-03-20T21:11:24.191Z,100249.16
2023-03-20T21:13:28.613Z,100254
